Time;durP1;ratioP1;P1;durP2;ratioP2;P2;SDS_P1;SDS_P2;PMS_P1;PMS_P2;Temp;Humidity;BMP_temperature;BMP_pressure;BME280_temperature;BME280_humidity;BME280_pressure;Samples;Min_cycle;Max_cycle;Signal;HPM_P1;HPM_P2
2022/04/30 00:00:48;;;;;;;6.47;5.87;;;;;;;14.01;56.46;97126.72;5032956;28;20536;-67
2022/04/30 00:03:13;;;;;;;6.60;5.97;;;;;;;13.95;56.98;97121.59;5032230;28;20680;-68
2022/04/30 00:05:39;;;;;;;8.40;6.23;;;;;;;13.89;57.38;97123.34;5032718;28;20179;-68
2022/04/30 00:08:05;;;;;;;8.97;6.23;;;;;;;13.93;57.18;97116.56;5032944;28;20193;-67
2022/04/30 00:10:37;;;;;;;7.57;6.70;;;;;;;13.91;57.53;97118.66;5032242;28;20175;-68
2022/04/30 00:13:03;;;;;;;8.07;6.67;;;;;;;13.85;58.18;97116.97;5032664;28;20563;-67
2022/04/30 00:15:28;;;;;;;6.53;5.93;;;;;;;13.97;57.67;97112.44;5032560;28;20189;-67
2022/04/30 00:17:54;;;;;;;10.63;6.70;;;;;;;13.72;58.96;97114.63;5032203;28;20206;-68
2022/04/30 00:20:20;;;;;;;7.97;6.77;;;;;;;13.75;58.95;97108.91;5032694;28;20187;-67
2022/04/30 00:22:45;;;;;;;7.87;7.07;;;;;;;13.76;59.44;97107.88;5032654;28;20237;-68
2022/04/30 00:25:11;;;;;;;10.47;7.80;;;;;;;13.78;59.24;97112.88;5032505;28;20187;-68
2022/04/30 00:27:36;;;;;;;10.57;8.17;;;;;;;13.82;58.96;97117.44;5032523;28;20660;-67
2022/04/30 00:30:03;;;;;;;11.30;8.80;;;;;;;13.60;59.69;97113.91;5032205;28;20203;-68
2022/04/30 00:32:30;;;;;;;11.20;8.50;;;;;;;13.50;59.84;97121.63;5032585;28;20190;-67
2022/04/30 00:34:55;;;;;;;9.80;8.20;;;;;;;13.63;59.11;97119.50;5034630;28;20583;-67
2022/04/30 00:37:21;;;;;;;10.63;8.50;;;;;;;13.63;59.46;97122.13;5039097;28;20195;-67
2022/04/30 00:39:46;;;;;;;12.60;7.40;;;;;;;13.33;60.45;97124.22;5039124;28;20540;-67
2022/04/30 00:42:12;;;;;;;7.00;6.30;;;;;;;13.26;60.88;97129.63;5039335;28;20268;-68
2022/04/30 00:44:38;;;;;;;9.23;6.60;;;;;;;13.03;61.64;97134.94;5038756;28;20174;-67
2022/04/30 00:47:03;;;;;;;9.18;6.78;;;;;;;12.93;62.25;97129.47;5037887;28;20443;-67
2022/04/30 00:49:29;;;;;;;7.20;6.50;;;;;;;12.97;62.28;97125.34;5020314;28;20402;-67
2022/04/30 00:51:59;;;;;;;8.93;6.90;;;;;;;13.16;62.09;97126.78;5037763;28;20394;-67
2022/04/30 00:54:27;;;;;;;7.20;6.07;;;;;;;13.39;61.42;97128.53;5038046;28;20482;-66
2022/04/30 00:56:58;;;;;;;7.20;6.10;;;;;;;13.07;62.08;97132.63;5037748;28;20418;-67
2022/04/30 00:59:25;;;;;;;9.05;6.75;;;;;;;13.03;62.24;97134.94;5020135;28;20837;-67
2022/04/30 01:01:50;;;;;;;8.05;6.75;;;;;;;13.18;61.88;97124.75;5037321;28;20405;-66
2022/04/30 01:04:18;;;;;;;8.05;6.57;;;;;;;13.03;62.48;97128.88;5037657;28;20498;-66
2022/04/30 01:06:51;;;;;;;8.32;6.30;;;;;;;12.82;63.33;97130.28;5037657;28;20423;-66
2022/04/30 01:09:23;;;;;;;6.93;6.05;;;;;;;12.77;63.87;97128.34;5037617;28;20398;-66
2022/04/30 01:11:58;;;;;;;10.75;7.00;;;;;;;12.59;64.82;97122.47;5037121;28;20761;-66
2022/04/30 01:14:29;;;;;;;8.00;7.10;;;;;;;12.58;65.20;97129.53;5036519;28;20703;-67
2022/04/30 01:16:59;;;;;;;7.70;6.90;;;;;;;12.74;65.18;97122.78;5037317;28;20425;-65
2022/04/30 01:19:27;;;;;;;8.05;7.25;;;;;;;12.47;66.93;97128.53;5037858;28;20441;-66
2022/04/30 01:21:56;;;;;;;10.30;8.27;;;;;;;12.39;68.25;97120.16;5037067;28;20723;-68
2022/04/30 01:24:23;;;;;;;9.75;8.30;;;;;;;12.38;69.56;97123.81;5037149;28;20893;-66
2022/04/30 01:26:51;;;;;;;10.13;8.80;;;;;;;12.46;70.01;97123.50;5020677;28;20190;-66
2022/04/30 01:29:18;;;;;;;10.83;8.83;;;;;;;12.25;71.51;97126.69;5038832;28;20228;-66
2022/04/30 01:37:25;;;;;;;17.58;12.02;;;;;;;12.12;75.68;97119.03;5037531;28;20445;-67
2022/04/30 01:40:19;;;;;;;18.17;11.47;;;;;;;12.24;76.18;97106.69;5038483;28;20175;-66
2022/04/30 01:42:47;;;;;;;17.30;11.60;;;;;;;12.30;76.62;97103.16;5017071;28;20195;-67
2022/04/30 01:45:14;;;;;;;18.53;12.67;;;;;;;12.38;76.58;97106.22;5038125;28;20179;-67
2022/04/30 01:47:43;;;;;;;21.43;12.70;;;;;;;12.02;79.30;97098.59;5035943;28;20194;-67
2022/04/30 01:50:09;;;;;;;21.37;12.93;;;;;;;11.97;80.09;97098.47;5035174;28;20217;-67
2022/04/30 01:52:35;;;;;;;20.60;14.03;;;;;;;11.67;82.70;97098.50;5034910;28;20206;-68
2022/04/30 01:55:00;;;;;;;18.83;13.37;;;;;;;11.77;82.91;97095.34;5016576;28;20519;-66
2022/04/30 01:57:26;;;;;;;19.87;13.80;;;;;;;11.88;83.23;97095.34;5035205;28;20251;-68
2022/04/30 02:00:00;;;;;;;24.20;14.80;;;;;;;11.68;84.06;97094.84;5034435;28;20183;-67
2022/04/30 02:02:36;;;;;;;22.00;15.07;;;;;;;11.84;84.42;97094.22;5035495;28;20187;-67
2022/04/30 02:05:06;;;;;;;21.70;14.47;;;;;;;11.77;85.17;97088.25;5034762;28;20234;-66
2022/04/30 02:07:37;;;;;;;22.17;15.03;;;;;;;11.91;84.58;97089.66;5017257;28;20273;-67
2022/04/30 02:10:06;;;;;;;23.00;15.30;;;;;;;11.81;85.38;97089.44;5034855;28;20540;-67
2022/04/30 02:12:33;;;;;;;24.57;15.03;;;;;;;11.75;85.60;97079.84;5017253;28;20194;-67
2022/04/30 02:14:59;;;;;;;21.23;15.20;;;;;;;11.73;86.24;97084.50;5034279;28;20661;-67
2022/04/30 02:17:28;;;;;;;22.13;14.60;;;;;;;11.57;87.86;97082.50;5035008;28;20187;-66
2022/04/30 02:22:44;;;;;;;21.43;14.97;;;;;;;11.48;88.93;97073.34;5034301;28;20186;-67
2022/04/30 02:25:12;;;;;;;28.70;15.57;;;;;;;11.54;88.86;97075.84;5034363;28;20201;-67
2022/04/30 02:27:39;;;;;;;22.27;15.40;;;;;;;11.64;88.62;97084.00;5017527;28;20197;-68
2022/04/30 02:30:11;;;;;;;24.27;15.27;;;;;;;11.81;88.05;97081.56;5034349;28;20178;-67
2022/04/30 02:32:46;;;;;;;25.70;15.57;;;;;;;11.59;88.68;97075.97;5035065;28;20540;-66
2022/04/30 02:35:14;;;;;;;24.57;15.53;;;;;;;11.55;89.26;97080.09;5034635;28;20178;-68
2022/04/30 02:37:39;;;;;;;30.43;15.63;;;;;;;11.65;88.63;97080.34;5034314;28;20206;-68
2022/04/30 02:40:05;;;;;;;23.40;15.37;;;;;;;11.51;89.80;97080.78;5034769;28;20664;-66
2022/04/30 02:42:32;;;;;;;24.93;15.30;;;;;;;11.48;90.00;97074.13;5034673;28;20278;-67
2022/04/30 02:44:57;;;;;;;24.37;15.03;;;;;;;11.59;89.41;97078.59;5016379;28;20835;-67
2022/04/30 02:47:23;;;;;;;20.73;14.87;;;;;;;11.31;91.31;97078.44;5034531;28;20186;-66
2022/04/30 02:49:48;;;;;;;21.30;14.47;;;;;;;11.24;91.56;97081.16;5034166;28;20187;-66
2022/04/30 02:52:13;;;;;;;26.63;15.53;;;;;;;11.44;90.61;97078.25;5034033;28;20191;-66
2022/04/30 02:54:39;;;;;;;20.90;14.60;;;;;;;11.27;91.64;97075.44;5034300;28;20530;-68
2022/04/30 02:57:04;;;;;;;22.60;14.17;;;;;;;11.24;91.55;97077.72;5034179;28;20724;-67
2022/04/30 03:02:13;;;;;;;22.80;15.17;;;;;;;11.16;92.54;97075.41;5034468;28;20244;-67
2022/04/30 03:04:39;;;;;;;19.70;13.57;;;;;;;11.18;92.64;97079.44;5033827;28;20242;-68
2022/04/30 03:07:04;;;;;;;23.07;15.13;;;;;;;10.99;93.57;97077.03;5034163;28;20229;-67
2022/04/30 03:09:31;;;;;;;23.43;15.40;;;;;;;11.13;93.01;97081.13;5034163;28;20171;-68
2022/04/30 03:11:58;;;;;;;20.87;14.23;;;;;;;11.14;92.92;97083.53;5016178;28;20205;-68
2022/04/30 03:14:23;;;;;;;24.47;14.57;;;;;;;11.25;92.47;97069.66;5015937;28;20190;-68
2022/04/30 03:22:22;;;;;;;21.00;15.53;;;;;;;10.94;94.86;97072.47;5005503;28;20290;-67
2022/04/30 03:24:47;;;;;;;26.83;16.83;;;;;;;10.84;95.98;97070.38;5033338;28;20269;-68
2022/04/30 03:27:17;;;;;;;22.57;15.13;;;;;;;10.97;95.41;97076.50;5033598;28;20187;-68
2022/04/30 03:29:42;;;;;;;23.53;16.43;;;;;;;11.06;95.14;97075.94;5033640;28;20170;-67
2022/04/30 03:32:08;;;;;;;26.57;16.70;;;;;;;11.14;95.02;97077.47;5033821;28;20548;-67
2022/04/30 03:34:34;;;;;;;23.87;16.67;;;;;;;11.09;95.34;97078.13;5033617;28;20224;-67
2022/04/30 03:36:59;;;;;;;21.70;15.83;;;;;;;11.02;96.59;97071.38;5033316;28;20583;-67
2022/04/30 03:39:25;;;;;;;22.90;16.47;;;;;;;11.10;96.55;97078.91;5033508;28;20181;-67
2022/04/30 03:41:51;;;;;;;26.57;17.83;;;;;;;10.98;97.04;97080.72;5015123;28;20186;-68
2022/04/30 03:44:16;;;;;;;24.10;16.93;;;;;;;11.03;96.69;97072.97;5032520;28;20187;-67
2022/04/30 03:46:42;;;;;;;35.83;17.53;;;;;;;10.73;99.27;97076.38;5031834;28;20188;-68
2022/04/30 03:49:07;;;;;;;22.93;16.67;;;;;;;10.82;99.91;97075.03;5033366;28;20646;-67
2022/04/30 03:51:33;;;;;;;31.17;18.57;;;;;;;10.56;100.00;97066.69;5033284;28;20237;-67
2022/04/30 03:53:58;;;;;;;27.17;19.33;;;;;;;10.58;100.00;97078.56;5032825;28;20193;-67
2022/04/30 03:56:24;;;;;;;32.37;19.87;;;;;;;10.45;100.00;97083.94;5033285;28;20209;-68
2022/04/30 03:58:50;;;;;;;29.50;18.83;;;;;;;10.78;100.00;97079.13;5033000;28;20212;-67
2022/04/30 04:01:19;;;;;;;31.43;20.13;;;;;;;10.61;100.00;97090.41;5032596;28;20190;-67
2022/04/30 04:03:46;;;;;;;33.20;20.80;;;;;;;10.54;100.00;97097.53;5032787;28;20669;-67
2022/04/30 04:06:13;;;;;;;28.20;19.77;;;;;;;10.57;100.00;97100.56;5032994;28;20205;-67
2022/04/30 04:08:39;;;;;;;32.63;21.20;;;;;;;10.55;100.00;97099.97;5032518;28;20190;-68
2022/04/30 04:11:10;;;;;;;35.40;22.07;;;;;;;10.53;100.00;97103.84;5032037;28;20182;-67
2022/04/30 04:19:06;;;;;;;31.13;21.50;;;;;;;10.49;100.00;97102.63;5032613;28;20648;-69
2022/04/30 04:21:31;;;;;;;36.47;21.37;;;;;;;10.66;100.00;97088.75;5032772;28;20174;-68
2022/04/30 04:26:40;;;;;;;34.10;22.73;;;;;;;10.46;100.00;97096.03;5032497;28;20265;-69
2022/04/30 04:29:06;;;;;;;29.20;20.90;;;;;;;10.50;100.00;97099.00;5032381;28;20257;-67
2022/04/30 04:31:31;;;;;;;30.27;22.63;;;;;;;10.36;100.00;97104.41;5032565;28;20182;-68
2022/04/30 04:33:57;;;;;;;35.33;23.80;;;;;;;10.61;100.00;97114.00;5014847;28;20193;-68
2022/04/30 04:36:22;;;;;;;36.33;22.20;;;;;;;10.65;100.00;97107.31;5032519;28;20189;-68
2022/04/30 04:38:47;;;;;;;32.23;22.17;;;;;;;10.51;100.00;97116.34;5031770;28;20214;-68
2022/04/30 04:41:13;;;;;;;36.20;21.77;;;;;;;10.75;100.00;97115.47;5032309;28;20186;-68
2022/04/30 04:43:38;;;;;;;33.83;22.33;;;;;;;10.74;100.00;97116.50;5032340;28;20228;-69
2022/04/30 04:46:04;;;;;;;33.63;21.47;;;;;;;10.78;100.00;97125.53;5031739;28;20561;-68
2022/04/30 04:48:30;;;;;;;29.27;20.83;;;;;;;10.82;100.00;97118.81;5014794;28;20270;-67
2022/04/30 04:50:55;;;;;;;31.97;21.00;;;;;;;10.42;100.00;97121.06;5032098;28;20696;-68
2022/04/30 04:53:21;;;;;;;32.27;20.53;;;;;;;10.44;100.00;97126.88;5014438;28;20178;-67
2022/04/30 04:55:46;;;;;;;29.93;19.97;;;;;;;10.63;100.00;97128.50;5032479;28;20193;-68
2022/04/30 04:58:12;;;;;;;34.93;21.43;;;;;;;10.45;100.00;97122.44;5032044;28;20680;-68
2022/04/30 05:00:37;;;;;;;33.77;21.13;;;;;;;10.43;100.00;97133.13;5032030;28;20653;-69
2022/04/30 05:03:03;;;;;;;32.53;21.53;;;;;;;10.69;100.00;97140.75;5031455;28;20198;-68
2022/04/30 05:05:28;;;;;;;30.17;21.27;;;;;;;10.88;100.00;97144.16;5032020;28;20321;-68
2022/04/30 05:07:54;;;;;;;36.27;21.53;;;;;;;10.94;100.00;97159.00;5032415;28;20615;-69
2022/04/30 05:10:19;;;;;;;32.97;22.33;;;;;;;10.97;100.00;97158.59;5031962;28;20601;-69
2022/04/30 05:12:46;;;;;;;35.43;22.23;;;;;;;10.89;100.00;97161.50;5031798;28;20720;-69
2022/04/30 05:15:12;;;;;;;37.23;22.97;;;;;;;10.95;100.00;97170.31;5014389;28;20222;-69
2022/04/30 05:17:37;;;;;;;38.20;22.50;;;;;;;11.14;100.00;97169.28;5031438;28;20688;-68
2022/04/30 05:20:03;;;;;;;34.43;23.57;;;;;;;11.14;100.00;97172.72;5014371;28;20183;-69
2022/04/30 05:22:29;;;;;;;33.43;23.47;;;;;;;10.97;100.00;97176.16;5017630;28;20199;-69
2022/04/30 05:24:54;;;;;;;32.67;22.77;;;;;;;11.05;100.00;97174.03;5035885;28;20641;-68
2022/04/30 05:27:20;;;;;;;35.50;23.53;;;;;;;10.88;100.00;97172.19;5035736;28;20265;-68
2022/04/30 05:29:45;;;;;;;33.17;23.77;;;;;;;10.87;100.00;97176.63;5035236;28;20633;-68
2022/04/30 05:32:10;;;;;;;34.97;23.77;;;;;;;11.04;100.00;97171.59;5035577;28;20649;-69
2022/04/30 05:34:36;;;;;;;38.50;24.10;;;;;;;10.94;100.00;97174.75;5035258;28;20194;-69
2022/04/30 05:37:01;;;;;;;33.33;22.73;;;;;;;10.73;100.00;97176.00;5035584;28;20268;-68
2022/04/30 05:39:27;;;;;;;33.13;22.33;;;;;;;10.90;100.00;97175.41;5035631;28;20236;-69
2022/04/30 05:41:53;;;;;;;34.67;23.93;;;;;;;10.95;100.00;97170.31;5035082;28;20190;-68
2022/04/30 05:44:18;;;;;;;37.90;23.73;;;;;;;10.85;100.00;97173.44;5035486;28;20265;-69
2022/04/30 05:46:43;;;;;;;37.23;23.47;;;;;;;10.69;100.00;97171.41;5035128;28;20193;-69
2022/04/30 05:49:09;;;;;;;40.17;24.80;;;;;;;10.56;100.00;97172.34;5035299;28;20282;-68
2022/04/30 05:51:34;;;;;;;37.70;24.67;;;;;;;10.69;100.00;97172.22;5035462;28;20187;-68
2022/04/30 05:53:59;;;;;;;37.23;24.10;;;;;;;10.51;100.00;97166.94;5035114;28;20186;-69
2022/04/30 05:56:25;;;;;;;38.13;24.67;;;;;;;10.53;100.00;97166.72;5035628;28;20174;-67
2022/04/30 05:58:50;;;;;;;38.03;25.30;;;;;;;10.62;100.00;97165.41;5035346;28;20207;-68
2022/04/30 06:01:15;;;;;;;41.23;26.53;;;;;;;10.46;100.00;97164.16;5034796;28;20688;-70
2022/04/30 06:03:41;;;;;;;41.53;26.57;;;;;;;10.48;100.00;97169.19;5034650;28;20292;-69
2022/04/30 06:06:06;;;;;;;42.33;27.53;;;;;;;10.72;100.00;97181.44;5034783;28;20189;-68
2022/04/30 06:08:32;;;;;;;47.90;28.73;;;;;;;11.09;100.00;97177.03;5035149;28;20179;-68
2022/04/30 06:10:58;;;;;;;49.30;27.90;;;;;;;11.12;100.00;97182.63;5034758;28;20191;-69
2022/04/30 06:13:24;;;;;;;42.30;26.73;;;;;;;11.20;100.00;97178.91;5034964;28;20261;-69
2022/04/30 06:15:49;;;;;;;46.53;28.00;;;;;;;11.09;100.00;97177.78;5034415;28;20597;-69
2022/04/30 06:18:17;;;;;;;45.67;25.67;;;;;;;11.19;100.00;97183.34;5035028;28;20556;-68
2022/04/30 06:20:43;;;;;;;41.87;27.63;;;;;;;11.04;100.00;97180.28;5017230;28;20526;-68
2022/04/30 06:23:09;;;;;;;38.93;25.97;;;;;;;11.15;100.00;97189.22;5034622;28;20273;-68
2022/04/30 06:25:37;;;;;;;37.67;24.13;;;;;;;11.26;100.00;97191.91;5034742;28;20528;-69
2022/04/30 06:28:03;;;;;;;40.23;25.73;;;;;;;11.07;100.00;97192.16;5034483;28;20209;-70
2022/04/30 06:30:29;;;;;;;35.07;23.23;;;;;;;10.85;100.00;97191.81;5034334;28;20179;-70
2022/04/30 06:32:54;;;;;;;31.77;23.27;;;;;;;11.41;100.00;97188.94;5034004;28;20550;-68
2022/04/30 06:35:19;;;;;;;41.57;24.67;;;;;;;11.76;100.00;97190.94;5034527;28;20186;-69
2022/04/30 06:37:45;;;;;;;31.03;23.20;;;;;;;11.85;100.00;97192.19;5034014;28;20237;-69
2022/04/30 06:40:12;;;;;;;34.27;22.53;;;;;;;11.88;100.00;97194.38;5034432;28;20178;-69
2022/04/30 06:42:40;;;;;;;31.30;21.73;;;;;;;12.01;100.00;97200.25;5034491;28;20596;-70
2022/04/30 06:45:06;;;;;;;30.40;21.73;;;;;;;12.07;100.00;97193.28;5033474;28;20319;-70
2022/04/30 06:47:31;;;;;;;32.73;21.03;;;;;;;12.14;100.00;97194.00;5015474;28;20201;-69
2022/04/30 06:49:57;;;;;;;34.00;21.97;;;;;;;12.04;100.00;97201.59;5033687;28;20273;-69
2022/04/30 06:52:22;;;;;;;26.53;19.47;;;;;;;12.27;100.00;97193.75;5034157;28;20229;-68
2022/04/30 06:57:33;;;;;;;25.00;18.67;;;;;;;12.33;100.00;97202.56;5034087;28;20282;-69
2022/04/30 06:59:59;;;;;;;25.40;19.07;;;;;;;12.00;100.00;97208.34;5034033;28;20285;-69
2022/04/30 07:02:29;;;;;;;25.50;18.87;;;;;;;11.96;100.00;97209.81;5033175;28;20182;-69
2022/04/30 07:04:55;;;;;;;24.50;18.20;;;;;;;11.98;100.00;97207.78;5033698;28;20234;-69
2022/04/30 07:07:21;;;;;;;25.27;17.53;;;;;;;12.18;100.00;97210.09;5033842;28;20672;-68
2022/04/30 07:09:47;;;;;;;25.17;18.53;;;;;;;11.82;100.00;97206.56;5033189;28;20175;-67
2022/04/30 07:12:14;;;;;;;25.53;17.87;;;;;;;11.70;100.00;97202.28;5015168;28;20194;-68
2022/04/30 07:14:40;;;;;;;25.17;18.27;;;;;;;11.89;100.00;97207.28;5033261;28;20183;-69
2022/04/30 07:17:09;;;;;;;25.50;17.77;;;;;;;11.74;100.00;97204.28;5033537;28;20202;-68
2022/04/30 07:19:34;;;;;;;26.40;18.67;;;;;;;11.51;100.00;97212.03;5033837;28;20649;-67
2022/04/30 07:22:01;;;;;;;23.50;17.87;;;;;;;11.30;100.00;97209.88;5033131;28;20281;-69
2022/04/30 07:24:27;;;;;;;24.10;17.70;;;;;;;11.63;100.00;97211.06;5033585;28;20202;-69
2022/04/30 07:26:53;;;;;;;24.23;18.30;;;;;;;11.87;100.00;97208.53;5033299;28;20586;-69
2022/04/30 07:29:18;;;;;;;23.77;19.70;;;;;;;11.92;100.00;97209.47;5033567;28;20692;-69
2022/04/30 07:31:44;;;;;;;26.23;20.17;;;;;;;11.88;100.00;97212.75;5033135;28;20273;-68
2022/04/30 07:34:09;;;;;;;25.87;18.67;;;;;;;12.21;100.00;97210.44;5033095;28;20264;-67
2022/04/30 07:36:36;;;;;;;25.03;18.43;;;;;;;12.13;100.00;97208.16;5033193;28;20166;-68
2022/04/30 07:39:02;;;;;;;26.00;18.07;;;;;;;12.05;100.00;97206.63;5032707;28;20352;-68
2022/04/30 07:41:27;;;;;;;27.23;18.40;;;;;;;11.81;100.00;97214.69;5033080;28;20179;-67
2022/04/30 07:43:53;;;;;;;26.50;19.20;;;;;;;11.89;100.00;97219.63;5032843;28;20554;-67
2022/04/30 07:46:18;;;;;;;28.40;19.40;;;;;;;11.76;100.00;97214.56;5032011;28;20190;-68
2022/04/30 07:48:44;;;;;;;27.63;18.43;;;;;;;11.78;100.00;97220.38;5015187;28;20341;-68
2022/04/30 07:51:18;;;;;;;22.63;18.70;;;;;;;11.88;100.00;97220.63;5032618;28;20258;-67
2022/04/30 07:53:45;;;;;;;26.93;18.93;;;;;;;11.61;100.00;97218.34;5032730;28;20178;-68
2022/04/30 07:56:11;;;;;;;26.03;18.67;;;;;;;11.70;100.00;97216.22;5017217;28;20688;-68
2022/04/30 07:58:37;;;;;;;26.03;19.73;;;;;;;11.80;100.00;97221.75;5015102;28;20234;-68
2022/04/30 08:01:02;;;;;;;29.87;20.40;;;;;;;11.66;100.00;97215.84;5032638;28;20183;-69
2022/04/30 08:03:28;;;;;;;24.17;19.70;;;;;;;11.67;100.00;97214.03;5032666;28;20692;-69
2022/04/30 08:05:53;;;;;;;27.10;19.80;;;;;;;11.91;100.00;97214.94;5032479;28;20171;-68
2022/04/30 08:08:19;;;;;;;26.90;20.03;;;;;;;11.83;100.00;97221.31;5032613;28;20193;-67
2022/04/30 08:10:45;;;;;;;27.33;19.37;;;;;;;11.80;100.00;97220.97;5032905;28;20594;-67
2022/04/30 08:13:11;;;;;;;30.70;20.03;;;;;;;12.08;100.00;97221.97;5032341;28;20194;-69
2022/04/30 08:15:43;;;;;;;26.13;17.73;;;;;;;11.97;100.00;97221.94;5032118;28;20179;-66
2022/04/30 08:18:09;;;;;;;24.73;19.07;;;;;;;11.94;100.00;97225.00;5032226;28;20289;-67
2022/04/30 08:20:34;;;;;;;24.80;18.30;;;;;;;11.97;100.00;97228.00;5032339;28;20273;-67
2022/04/30 08:23:02;;;;;;;23.83;17.40;;;;;;;12.09;100.00;97222.78;5014559;28;20290;-65
2022/04/30 08:25:28;;;;;;;24.80;18.60;;;;;;;12.15;100.00;97226.31;5032284;28;20274;-66
2022/04/30 08:27:53;;;;;;;21.53;17.07;;;;;;;12.22;100.00;97222.56;5014245;28;20194;-66
2022/04/30 08:30:18;;;;;;;22.77;16.60;;;;;;;12.50;100.00;97224.53;5014819;28;20186;-67
2022/04/30 08:32:44;;;;;;;19.63;16.97;;;;;;;12.38;100.00;97227.16;5032082;28;20547;-71
2022/04/30 08:35:09;;;;;;;22.63;16.33;;;;;;;12.65;100.00;97237.25;5014929;28;20198;-72
2022/04/30 08:37:34;;;;;;;21.23;15.67;;;;;;;12.73;100.00;97235.06;5032463;28;20567;-67
2022/04/30 08:40:00;;;;;;;20.77;15.23;;;;;;;12.67;100.00;97230.72;5031244;28;20201;-67
2022/04/30 08:42:25;;;;;;;17.27;14.97;;;;;;;12.49;100.00;97231.63;5032006;28;20179;-68
2022/04/30 08:44:51;;;;;;;17.93;14.77;;;;;;;12.28;100.00;97228.72;5029742;28;20194;-68
2022/04/30 08:47:16;;;;;;;19.70;15.40;;;;;;;11.86;100.00;97233.19;5025241;28;20187;-68
2022/04/30 08:49:42;;;;;;;19.53;14.23;;;;;;;12.06;100.00;97234.50;5028770;28;20182;-68
2022/04/30 08:52:10;;;;;;;17.90;14.23;;;;;;;12.00;100.00;97232.78;5031962;28;20717;-67
2022/04/30 08:54:35;;;;;;;22.17;15.97;;;;;;;12.09;100.00;97234.06;5031441;28;20179;-67
2022/04/30 08:57:01;;;;;;;18.47;15.17;;;;;;;12.21;100.00;97234.09;5034825;28;20229;-69
2022/04/30 08:59:27;;;;;;;19.57;15.57;;;;;;;12.10;100.00;97237.47;5018653;28;20186;-68
2022/04/30 09:01:55;;;;;;;17.17;15.07;;;;;;;12.14;100.00;97228.16;5035844;28;20194;-68
2022/04/30 09:04:21;;;;;;;18.23;14.07;;;;;;;12.10;100.00;97229.59;5035957;28;20226;-67
2022/04/30 09:06:49;;;;;;;16.37;14.07;;;;;;;11.88;100.00;97236.38;5036339;28;20665;-67
2022/04/30 09:09:41;;;;;;;17.40;14.60;;;;;;;11.96;100.00;97233.47;5036192;28;20187;-69
2022/04/30 09:12:08;;;;;;;19.13;14.43;;;;;;;11.90;100.00;97231.72;5018731;28;20221;-68
2022/04/30 09:14:33;;;;;;;15.53;13.83;;;;;;;11.58;100.00;97234.56;5035442;28;20266;-69
2022/04/30 09:17:07;;;;;;;18.87;14.97;;;;;;;11.70;100.00;97233.81;5034087;28;20282;-70
2022/04/30 09:19:50;;;;;;;16.83;14.40;;;;;;;11.50;100.00;97234.03;5035366;28;20218;-68
2022/04/30 09:22:16;;;;;;;17.00;14.43;;;;;;;11.27;100.00;97235.50;5034577;28;20194;-72
2022/04/30 09:24:49;;;;;;;15.87;14.17;;;;;;;11.19;100.00;97238.44;5034641;28;20182;-70
2022/04/30 09:27:16;;;;;;;15.57;13.77;;;;;;;11.03;100.00;97235.59;5034226;28;20191;-69
2022/04/30 09:29:41;;;;;;;16.10;13.83;;;;;;;11.12;100.00;97232.47;5035457;28;20189;-69
2022/04/30 09:32:07;;;;;;;18.70;14.23;;;;;;;11.03;100.00;97230.34;5030628;28;20190;-69
2022/04/30 09:37:41;;;;;;;18.47;15.07;;;;;;;11.01;100.00;97227.94;5035911;28;20217;-69
2022/04/30 09:40:27;;;;;;;19.90;15.30;;;;;;;11.00;100.00;97228.97;5035067;28;20167;-69
2022/04/30 09:42:52;;;;;;;19.73;15.27;;;;;;;10.78;100.00;97236.44;5035481;28;20190;-69
2022/04/30 09:45:33;;;;;;;19.97;16.47;;;;;;;11.03;100.00;97238.22;5035325;28;20217;-67
2022/04/30 09:48:00;;;;;;;19.40;14.90;;;;;;;11.30;100.00;97236.09;5035005;28;20273;-70
2022/04/30 09:56:05;;;;;;;18.83;15.47;;;;;;;11.32;100.00;97229.59;5034344;28;20178;-70
2022/04/30 09:58:35;;;;;;;18.97;14.17;;;;;;;11.19;100.00;97232.41;5017488;28;20676;-68
2022/04/30 10:01:01;;;;;;;14.27;12.83;;;;;;;11.11;100.00;97230.06;5034288;28;20249;-70
2022/04/30 10:03:31;;;;;;;20.13;13.80;;;;;;;11.42;100.00;97224.66;5034296;28;20324;-69
2022/04/30 10:06:04;;;;;;;13.93;12.43;;;;;;;11.64;100.00;97228.41;5035788;28;20198;-68
2022/04/30 10:08:35;;;;;;;16.87;12.33;;;;;;;11.60;100.00;97229.84;5033448;28;20661;-68
2022/04/30 10:11:32;;;;;;;11.07;9.80;;;;;;;11.23;100.00;97230.94;5016745;28;20669;-69
2022/04/30 10:14:41;;;;;;;11.73;10.53;;;;;;;11.23;100.00;97230.94;5034856;28;20298;-68
2022/04/30 10:17:12;;;;;;;11.37;9.87;;;;;;;10.91;100.00;97227.66;5016652;28;20204;-67
2022/04/30 10:19:41;;;;;;;11.80;10.37;;;;;;;11.37;100.00;97231.59;5025423;28;20167;-68
2022/04/30 10:22:17;;;;;;;11.30;10.10;;;;;;;11.16;100.00;97225.75;5008674;28;20215;-68
2022/04/30 10:24:48;;;;;;;10.83;9.40;;;;;;;10.98;100.00;97230.97;5033039;28;20190;-69
2022/04/30 10:27:15;;;;;;;13.40;10.30;;;;;;;11.18;100.00;97233.41;5034123;28;20193;-68
2022/04/30 10:29:59;;;;;;;13.50;10.40;;;;;;;11.16;100.00;97225.75;5006624;28;20548;-69
2022/04/30 10:32:30;;;;;;;11.40;10.17;;;;;;;11.55;100.00;97228.91;5032765;28;20229;-69
2022/04/30 10:34:56;;;;;;;11.27;10.00;;;;;;;11.25;100.00;97228.91;5034586;28;20186;-68
2022/04/30 10:37:29;;;;;;;12.13;10.83;;;;;;;11.46;100.00;97223.19;5034886;28;20672;-68
2022/04/30 10:39:57;;;;;;;11.93;10.57;;;;;;;11.51;100.00;97222.53;5018272;28;20179;-69
2022/04/30 10:42:30;;;;;;;11.40;10.30;;;;;;;12.00;100.00;97230.16;5015924;28;20247;-69
2022/04/30 10:44:56;;;;;;;10.77;9.67;;;;;;;12.02;100.00;97232.56;5032826;28;20178;-69
2022/04/30 10:47:21;;;;;;;11.07;9.10;;;;;;;12.03;100.00;97234.97;5033955;28;20190;-68
2022/04/30 10:49:47;;;;;;;11.70;10.37;;;;;;;11.88;100.00;97228.50;5034144;28;20185;-68
2022/04/30 10:52:21;;;;;;;10.30;8.97;;;;;;;11.59;100.00;97228.25;5033992;28;20645;-69
2022/04/30 10:54:48;;;;;;;11.63;10.47;;;;;;;11.79;100.00;97227.22;5016164;28;20537;-69
2022/04/30 10:57:14;;;;;;;12.40;11.10;;;;;;;11.91;100.00;97231.50;5034050;28;20620;-68
2022/04/30 10:59:39;;;;;;;13.23;11.10;;;;;;;12.20;100.00;97229.06;5033926;28;20270;-68
2022/04/30 11:02:05;;;;;;;11.63;10.00;;;;;;;12.47;100.00;97225.81;5033674;28;20186;-69
2022/04/30 11:04:30;;;;;;;13.27;10.57;;;;;;;12.12;100.00;97222.31;5033086;28;20297;-69
2022/04/30 11:06:58;;;;;;;14.50;10.83;;;;;;;12.15;100.00;97221.84;5033528;28;20190;-69
2022/04/30 11:09:25;;;;;;;12.73;10.53;;;;;;;12.11;100.00;97214.63;5033453;28;20233;-69
2022/04/30 11:11:50;;;;;;;11.03;9.90;;;;;;;11.83;100.00;97226.56;5033227;28;20211;-70
2022/04/30 11:14:17;;;;;;;11.97;9.50;;;;;;;11.66;100.00;97220.28;5033515;28;20526;-69
2022/04/30 11:16:45;;;;;;;11.73;10.23;;;;;;;11.08;100.00;97220.00;5032951;28;20186;-69
2022/04/30 11:19:15;;;;;;;10.90;9.80;;;;;;;11.35;100.00;97218.69;5032352;28;20203;-67
2022/04/30 11:21:43;;;;;;;11.00;9.90;;;;;;;11.50;100.00;97211.22;5031920;28;20660;-69
2022/04/30 11:24:09;;;;;;;9.73;8.73;;;;;;;11.49;100.00;97216.69;5031164;28;20521;-70
2022/04/30 11:26:38;;;;;;;10.73;9.03;;;;;;;11.37;100.00;97207.97;5033621;28;20174;-69
2022/04/30 11:29:11;;;;;;;10.30;9.20;;;;;;;11.41;100.00;97209.13;5030569;28;20174;-69
2022/04/30 11:31:37;;;;;;;9.70;7.70;;;;;;;11.29;100.00;97213.50;5029264;28;20193;-69
2022/04/30 11:34:17;;;;;;;7.47;6.63;;;;;;;11.71;100.00;97209.91;5032128;28;20190;-70
2022/04/30 11:36:56;;;;;;;7.20;5.20;;;;;;;11.83;99.63;97217.88;5030587;28;20199;-69
2022/04/30 11:39:22;;;;;;;5.10;4.70;;;;;;;12.08;98.07;97210.66;5012399;28;20183;-69
2022/04/30 11:41:53;;;;;;;5.03;4.50;;;;;;;12.21;96.37;97207.81;5032846;28;20193;-70
2022/04/30 11:44:23;;;;;;;4.60;4.20;;;;;;;12.63;94.26;97207.75;5012553;28;20182;-70
2022/04/30 11:46:53;;;;;;;4.97;4.57;;;;;;;13.10;94.27;97198.75;5031773;28;20187;-70
2022/04/30 11:49:27;;;;;;;4.60;4.23;;;;;;;12.78;92.37;97200.19;5032500;28;20542;-70
2022/04/30 11:51:56;;;;;;;5.27;4.13;;;;;;;12.83;92.16;97195.81;5031133;28;20640;-70